sensor_id;sensor_type;location;lat;lon;timestamp;P1;durP1;ratioP1;P2;durP2;ratioP2
82703;SDS011;72427;42.000;21.464;2024-03-06T00:02:03;37.97;;;18.50;;
82703;SDS011;72427;42.000;21.464;2024-03-06T00:04:29;37.22;;;18.38;;
82703;SDS011;72427;42.000;21.464;2024-03-06T00:06:55;36.00;;;17.48;;
82703;SDS011;72427;42.000;21.464;2024-03-06T00:09:22;38.63;;;18.08;;
82703;SDS011;72427;42.000;21.464;2024-03-06T00:11:49;36.15;;;17.42;;
82703;SDS011;72427;42.000;21.464;2024-03-06T00:14:18;43.38;;;17.92;;
82703;SDS011;72427;42.000;21.464;2024-03-06T00:16:45;33.17;;;16.35;;
82703;SDS011;72427;42.000;21.464;2024-03-06T00:19:11;37.15;;;17.05;;
82703;SDS011;72427;42.000;21.464;2024-03-06T00:21:37;35.45;;;16.88;;
82703;SDS011;72427;42.000;21.464;2024-03-06T00:24:03;34.33;;;16.75;;
82703;SDS011;72427;42.000;21.464;2024-03-06T00:26:29;32.67;;;16.85;;
82703;SDS011;72427;42.000;21.464;2024-03-06T00:28:55;33.10;;;16.35;;
82703;SDS011;72427;42.000;21.464;2024-03-06T00:31:21;31.77;;;16.08;;
82703;SDS011;72427;42.000;21.464;2024-03-06T00:33:47;34.85;;;16.45;;
82703;SDS011;72427;42.000;21.464;2024-03-06T00:36:13;36.35;;;16.88;;
82703;SDS011;72427;42.000;21.464;2024-03-06T00:38:39;31.23;;;15.95;;
82703;SDS011;72427;42.000;21.464;2024-03-06T00:41:05;34.45;;;17.65;;
82703;SDS011;72427;42.000;21.464;2024-03-06T00:43:31;34.60;;;17.63;;
82703;SDS011;72427;42.000;21.464;2024-03-06T00:45:57;34.90;;;17.17;;
82703;SDS011;72427;42.000;21.464;2024-03-06T00:48:24;34.35;;;16.05;;
82703;SDS011;72427;42.000;21.464;2024-03-06T00:50:50;36.85;;;16.90;;
82703;SDS011;72427;42.000;21.464;2024-03-06T00:53:17;31.40;;;15.32;;
82703;SDS011;72427;42.000;21.464;2024-03-06T00:55:43;33.53;;;16.40;;
82703;SDS011;72427;42.000;21.464;2024-03-06T00:58:09;33.17;;;16.40;;
82703;SDS011;72427;42.000;21.464;2024-03-06T01:00:36;36.92;;;17.52;;
82703;SDS011;72427;42.000;21.464;2024-03-06T01:03:03;34.17;;;16.83;;
82703;SDS011;72427;42.000;21.464;2024-03-06T01:05:29;40.70;;;19.58;;
82703;SDS011;72427;42.000;21.464;2024-03-06T01:07:55;32.33;;;16.23;;
82703;SDS011;72427;42.000;21.464;2024-03-06T01:10:22;36.90;;;16.95;;
82703;SDS011;72427;42.000;21.464;2024-03-06T01:12:49;32.28;;;16.48;;
82703;SDS011;72427;42.000;21.464;2024-03-06T01:15:15;31.25;;;15.10;;
82703;SDS011;72427;42.000;21.464;2024-03-06T01:17:41;33.50;;;17.02;;
82703;SDS011;72427;42.000;21.464;2024-03-06T01:20:07;34.15;;;15.77;;
82703;SDS011;72427;42.000;21.464;2024-03-06T01:22:33;29.48;;;15.57;;
82703;SDS011;72427;42.000;21.464;2024-03-06T01:25:00;35.78;;;16.98;;
82703;SDS011;72427;42.000;21.464;2024-03-06T01:27:26;41.03;;;16.55;;
82703;SDS011;72427;42.000;21.464;2024-03-06T01:29:52;31.63;;;15.60;;
82703;SDS011;72427;42.000;21.464;2024-03-06T01:32:18;36.70;;;15.50;;
82703;SDS011;72427;42.000;21.464;2024-03-06T01:34:44;31.52;;;15.02;;
82703;SDS011;72427;42.000;21.464;2024-03-06T01:37:10;32.90;;;15.27;;
82703;SDS011;72427;42.000;21.464;2024-03-06T01:39:36;29.73;;;14.43;;
82703;SDS011;72427;42.000;21.464;2024-03-06T01:42:02;31.40;;;15.82;;
82703;SDS011;72427;42.000;21.464;2024-03-06T01:44:29;31.40;;;15.85;;
82703;SDS011;72427;42.000;21.464;2024-03-06T01:46:55;27.50;;;14.73;;
82703;SDS011;72427;42.000;21.464;2024-03-06T01:49:21;33.47;;;15.10;;
82703;SDS011;72427;42.000;21.464;2024-03-06T01:51:55;30.85;;;15.80;;
82703;SDS011;72427;42.000;21.464;2024-03-06T01:54:21;25.15;;;14.45;;
82703;SDS011;72427;42.000;21.464;2024-03-06T01:56:48;28.45;;;15.95;;
82703;SDS011;72427;42.000;21.464;2024-03-06T01:59:15;29.50;;;15.45;;
82703;SDS011;72427;42.000;21.464;2024-03-06T02:01:42;29.25;;;15.23;;
82703;SDS011;72427;42.000;21.464;2024-03-06T02:04:09;29.33;;;14.75;;
82703;SDS011;72427;42.000;21.464;2024-03-06T02:06:35;30.67;;;15.10;;
82703;SDS011;72427;42.000;21.464;2024-03-06T02:09:02;31.90;;;15.98;;
82703;SDS011;72427;42.000;21.464;2024-03-06T02:11:29;32.30;;;14.32;;
82703;SDS011;72427;42.000;21.464;2024-03-06T02:13:55;30.00;;;14.20;;
82703;SDS011;72427;42.000;21.464;2024-03-06T02:16:21;27.27;;;13.77;;
82703;SDS011;72427;42.000;21.464;2024-03-06T02:18:56;31.00;;;14.57;;
82703;SDS011;72427;42.000;21.464;2024-03-06T02:21:23;28.02;;;14.35;;
82703;SDS011;72427;42.000;21.464;2024-03-06T02:23:49;28.52;;;14.25;;
82703;SDS011;72427;42.000;21.464;2024-03-06T02:28:48;29.30;;;13.07;;
82703;SDS011;72427;42.000;21.464;2024-03-06T02:31:15;30.20;;;14.43;;
82703;SDS011;72427;42.000;21.464;2024-03-06T02:33:42;29.10;;;14.50;;
82703;SDS011;72427;42.000;21.464;2024-03-06T02:36:09;28.85;;;14.10;;
82703;SDS011;72427;42.000;21.464;2024-03-06T02:38:35;31.17;;;14.88;;
82703;SDS011;72427;42.000;21.464;2024-03-06T02:41:01;29.13;;;14.70;;
82703;SDS011;72427;42.000;21.464;2024-03-06T02:43:28;30.75;;;14.98;;
82703;SDS011;72427;42.000;21.464;2024-03-06T02:45:54;30.40;;;15.73;;
82703;SDS011;72427;42.000;21.464;2024-03-06T02:48:20;32.53;;;16.67;;
82703;SDS011;72427;42.000;21.464;2024-03-06T02:50:46;30.58;;;16.05;;
82703;SDS011;72427;42.000;21.464;2024-03-06T02:53:12;30.75;;;16.17;;
82703;SDS011;72427;42.000;21.464;2024-03-06T02:55:38;31.05;;;16.50;;
82703;SDS011;72427;42.000;21.464;2024-03-06T02:58:04;35.75;;;17.25;;
82703;SDS011;72427;42.000;21.464;2024-03-06T03:00:30;32.05;;;17.30;;
82703;SDS011;72427;42.000;21.464;2024-03-06T03:02:57;31.33;;;15.55;;
82703;SDS011;72427;42.000;21.464;2024-03-06T03:05:23;29.95;;;15.23;;
82703;SDS011;72427;42.000;21.464;2024-03-06T03:07:49;27.42;;;14.98;;
82703;SDS011;72427;42.000;21.464;2024-03-06T03:10:15;27.63;;;14.32;;
82703;SDS011;72427;42.000;21.464;2024-03-06T03:12:41;32.40;;;14.27;;
82703;SDS011;72427;42.000;21.464;2024-03-06T03:15:08;36.85;;;16.55;;
82703;SDS011;72427;42.000;21.464;2024-03-06T03:17:34;32.53;;;16.10;;
82703;SDS011;72427;42.000;21.464;2024-03-06T03:20:01;32.40;;;15.10;;
82703;SDS011;72427;42.000;21.464;2024-03-06T03:22:35;30.60;;;15.65;;
82703;SDS011;72427;42.000;21.464;2024-03-06T03:25:02;29.30;;;14.85;;
82703;SDS011;72427;42.000;21.464;2024-03-06T03:27:28;32.65;;;16.00;;
82703;SDS011;72427;42.000;21.464;2024-03-06T03:29:54;27.70;;;13.70;;
82703;SDS011;72427;42.000;21.464;2024-03-06T03:32:20;28.77;;;14.30;;
82703;SDS011;72427;42.000;21.464;2024-03-06T03:34:46;34.05;;;15.57;;
82703;SDS011;72427;42.000;21.464;2024-03-06T03:37:13;28.17;;;13.98;;
82703;SDS011;72427;42.000;21.464;2024-03-06T03:39:39;25.58;;;13.63;;
82703;SDS011;72427;42.000;21.464;2024-03-06T03:42:07;30.88;;;15.63;;
82703;SDS011;72427;42.000;21.464;2024-03-06T03:44:33;31.05;;;15.63;;
82703;SDS011;72427;42.000;21.464;2024-03-06T03:46:59;29.38;;;14.88;;
82703;SDS011;72427;42.000;21.464;2024-03-06T03:49:25;29.48;;;15.40;;
82703;SDS011;72427;42.000;21.464;2024-03-06T03:51:51;32.13;;;15.38;;
82703;SDS011;72427;42.000;21.464;2024-03-06T03:54:17;30.65;;;15.20;;
82703;SDS011;72427;42.000;21.464;2024-03-06T03:56:43;32.35;;;14.80;;
82703;SDS011;72427;42.000;21.464;2024-03-06T03:59:09;35.13;;;15.32;;
82703;SDS011;72427;42.000;21.464;2024-03-06T04:01:35;34.22;;;15.43;;
82703;SDS011;72427;42.000;21.464;2024-03-06T04:04:01;28.92;;;14.30;;
82703;SDS011;72427;42.000;21.464;2024-03-06T04:06:27;26.88;;;13.32;;
82703;SDS011;72427;42.000;21.464;2024-03-06T04:08:53;28.25;;;13.52;;
82703;SDS011;72427;42.000;21.464;2024-03-06T04:11:19;23.20;;;12.60;;
82703;SDS011;72427;42.000;21.464;2024-03-06T04:13:45;24.95;;;13.32;;
82703;SDS011;72427;42.000;21.464;2024-03-06T04:16:15;27.10;;;13.23;;
82703;SDS011;72427;42.000;21.464;2024-03-06T04:18:42;29.45;;;12.95;;
82703;SDS011;72427;42.000;21.464;2024-03-06T04:21:08;24.58;;;12.80;;
82703;SDS011;72427;42.000;21.464;2024-03-06T04:23:35;30.52;;;13.05;;
82703;SDS011;72427;42.000;21.464;2024-03-06T04:26:02;25.00;;;12.60;;
82703;SDS011;72427;42.000;21.464;2024-03-06T04:28:28;30.65;;;13.35;;
82703;SDS011;72427;42.000;21.464;2024-03-06T04:30:55;33.10;;;15.32;;
82703;SDS011;72427;42.000;21.464;2024-03-06T04:33:21;25.02;;;12.55;;
82703;SDS011;72427;42.000;21.464;2024-03-06T04:35:47;26.38;;;13.27;;
82703;SDS011;72427;42.000;21.464;2024-03-06T04:38:13;28.75;;;13.20;;
82703;SDS011;72427;42.000;21.464;2024-03-06T04:40:39;30.40;;;14.55;;
82703;SDS011;72427;42.000;21.464;2024-03-06T04:43:05;32.40;;;14.23;;
82703;SDS011;72427;42.000;21.464;2024-03-06T04:45:32;32.65;;;15.25;;
82703;SDS011;72427;42.000;21.464;2024-03-06T04:47:58;30.30;;;14.90;;
82703;SDS011;72427;42.000;21.464;2024-03-06T04:50:24;29.90;;;13.90;;
82703;SDS011;72427;42.000;21.464;2024-03-06T04:52:52;37.83;;;15.50;;
82703;SDS011;72427;42.000;21.464;2024-03-06T04:55:18;38.63;;;19.52;;
82703;SDS011;72427;42.000;21.464;2024-03-06T04:57:47;41.15;;;22.13;;
82703;SDS011;72427;42.000;21.464;2024-03-06T05:00:14;30.38;;;16.05;;
82703;SDS011;72427;42.000;21.464;2024-03-06T05:02:40;35.75;;;15.93;;
82703;SDS011;72427;42.000;21.464;2024-03-06T05:05:07;35.47;;;15.77;;
82703;SDS011;72427;42.000;21.464;2024-03-06T05:07:33;33.60;;;16.40;;
82703;SDS011;72427;42.000;21.464;2024-03-06T05:10:00;31.83;;;15.68;;
82703;SDS011;72427;42.000;21.464;2024-03-06T05:12:26;36.55;;;15.93;;
82703;SDS011;72427;42.000;21.464;2024-03-06T05:14:53;34.65;;;15.75;;
82703;SDS011;72427;42.000;21.464;2024-03-06T05:17:19;31.10;;;15.13;;
82703;SDS011;72427;42.000;21.464;2024-03-06T05:19:45;33.42;;;15.15;;
82703;SDS011;72427;42.000;21.464;2024-03-06T05:22:12;33.22;;;15.68;;
82703;SDS011;72427;42.000;21.464;2024-03-06T05:24:38;28.45;;;14.32;;
82703;SDS011;72427;42.000;21.464;2024-03-06T05:27:05;39.25;;;14.48;;
82703;SDS011;72427;42.000;21.464;2024-03-06T05:29:31;30.85;;;14.93;;
82703;SDS011;72427;42.000;21.464;2024-03-06T05:31:57;36.78;;;15.32;;
82703;SDS011;72427;42.000;21.464;2024-03-06T05:34:23;31.10;;;14.20;;
82703;SDS011;72427;42.000;21.464;2024-03-06T05:36:49;32.53;;;14.30;;
82703;SDS011;72427;42.000;21.464;2024-03-06T05:39:15;36.45;;;14.25;;
82703;SDS011;72427;42.000;21.464;2024-03-06T05:41:42;29.63;;;13.60;;
82703;SDS011;72427;42.000;21.464;2024-03-06T05:44:08;33.38;;;15.50;;
82703;SDS011;72427;42.000;21.464;2024-03-06T05:46:35;34.15;;;16.20;;
82703;SDS011;72427;42.000;21.464;2024-03-06T05:49:01;31.55;;;14.85;;
82703;SDS011;72427;42.000;21.464;2024-03-06T05:51:27;35.72;;;15.73;;
82703;SDS011;72427;42.000;21.464;2024-03-06T05:53:53;29.95;;;16.23;;
82703;SDS011;72427;42.000;21.464;2024-03-06T05:56:19;32.88;;;15.82;;
82703;SDS011;72427;42.000;21.464;2024-03-06T05:58:45;60.42;;;37.75;;
82703;SDS011;72427;42.000;21.464;2024-03-06T06:01:12;38.58;;;22.00;;
82703;SDS011;72427;42.000;21.464;2024-03-06T06:03:40;30.35;;;15.13;;
82703;SDS011;72427;42.000;21.464;2024-03-06T06:06:06;40.47;;;17.55;;
82703;SDS011;72427;42.000;21.464;2024-03-06T06:08:33;39.13;;;20.38;;
82703;SDS011;72427;42.000;21.464;2024-03-06T06:11:02;35.33;;;20.08;;
82703;SDS011;72427;42.000;21.464;2024-03-06T06:13:29;36.08;;;19.23;;
82703;SDS011;72427;42.000;21.464;2024-03-06T06:15:57;36.42;;;20.38;;
82703;SDS011;72427;42.000;21.464;2024-03-06T06:18:23;36.80;;;19.60;;
82703;SDS011;72427;42.000;21.464;2024-03-06T06:20:49;43.05;;;21.45;;
82703;SDS011;72427;42.000;21.464;2024-03-06T06:23:16;38.85;;;18.40;;
82703;SDS011;72427;42.000;21.464;2024-03-06T06:25:42;38.92;;;19.83;;
82703;SDS011;72427;42.000;21.464;2024-03-06T06:28:08;32.83;;;17.40;;
82703;SDS011;72427;42.000;21.464;2024-03-06T06:30:35;32.55;;;18.83;;
82703;SDS011;72427;42.000;21.464;2024-03-06T06:33:01;28.83;;;15.32;;
82703;SDS011;72427;42.000;21.464;2024-03-06T06:35:27;29.90;;;14.25;;
82703;SDS011;72427;42.000;21.464;2024-03-06T06:37:54;28.95;;;15.63;;
82703;SDS011;72427;42.000;21.464;2024-03-06T06:40:20;28.13;;;15.98;;
82703;SDS011;72427;42.000;21.464;2024-03-06T06:42:47;31.48;;;15.25;;
82703;SDS011;72427;42.000;21.464;2024-03-06T06:45:15;31.65;;;16.00;;
82703;SDS011;72427;42.000;21.464;2024-03-06T06:47:41;32.00;;;15.02;;
82703;SDS011;72427;42.000;21.464;2024-03-06T06:50:07;32.63;;;15.95;;
82703;SDS011;72427;42.000;21.464;2024-03-06T06:52:34;31.42;;;15.27;;
82703;SDS011;72427;42.000;21.464;2024-03-06T06:55:00;33.67;;;15.43;;
82703;SDS011;72427;42.000;21.464;2024-03-06T06:57:26;34.20;;;16.63;;
82703;SDS011;72427;42.000;21.464;2024-03-06T06:59:52;31.13;;;16.02;;
82703;SDS011;72427;42.000;21.464;2024-03-06T07:02:18;33.50;;;15.43;;
82703;SDS011;72427;42.000;21.464;2024-03-06T07:04:45;30.83;;;16.92;;
82703;SDS011;72427;42.000;21.464;2024-03-06T07:07:11;32.28;;;17.10;;
82703;SDS011;72427;42.000;21.464;2024-03-06T07:09:37;32.38;;;17.75;;
82703;SDS011;72427;42.000;21.464;2024-03-06T07:12:03;35.03;;;18.17;;
82703;SDS011;72427;42.000;21.464;2024-03-06T07:14:29;30.65;;;16.10;;
82703;SDS011;72427;42.000;21.464;2024-03-06T07:16:55;32.83;;;18.38;;
82703;SDS011;72427;42.000;21.464;2024-03-06T07:19:21;34.03;;;16.67;;
82703;SDS011;72427;42.000;21.464;2024-03-06T07:21:47;30.02;;;16.50;;
82703;SDS011;72427;42.000;21.464;2024-03-06T07:24:13;28.42;;;15.73;;
82703;SDS011;72427;42.000;21.464;2024-03-06T07:26:39;32.78;;;18.05;;
82703;SDS011;72427;42.000;21.464;2024-03-06T07:29:05;29.15;;;16.27;;
82703;SDS011;72427;42.000;21.464;2024-03-06T07:31:38;29.42;;;16.42;;
82703;SDS011;72427;42.000;21.464;2024-03-06T07:34:04;30.05;;;17.85;;
82703;SDS011;72427;42.000;21.464;2024-03-06T07:36:32;31.08;;;16.17;;
82703;SDS011;72427;42.000;21.464;2024-03-06T07:38:58;29.48;;;16.63;;
82703;SDS011;72427;42.000;21.464;2024-03-06T07:41:24;28.25;;;16.02;;
82703;SDS011;72427;42.000;21.464;2024-03-06T07:43:50;29.20;;;16.50;;
82703;SDS011;72427;42.000;21.464;2024-03-06T07:46:16;21.50;;;11.30;;
82703;SDS011;72427;42.000;21.464;2024-03-06T07:48:42;27.35;;;15.15;;
82703;SDS011;72427;42.000;21.464;2024-03-06T07:51:12;27.35;;;14.75;;
82703;SDS011;72427;42.000;21.464;2024-03-06T07:53:38;24.55;;;14.45;;
82703;SDS011;72427;42.000;21.464;2024-03-06T07:56:04;27.88;;;17.70;;
82703;SDS011;72427;42.000;21.464;2024-03-06T07:58:30;27.48;;;15.05;;
82703;SDS011;72427;42.000;21.464;2024-03-06T08:00:56;28.40;;;16.33;;
82703;SDS011;72427;42.000;21.464;2024-03-06T08:03:24;31.75;;;16.50;;
82703;SDS011;72427;42.000;21.464;2024-03-06T08:05:53;26.92;;;15.98;;
82703;SDS011;72427;42.000;21.464;2024-03-06T08:08:19;31.40;;;15.80;;
82703;SDS011;72427;42.000;21.464;2024-03-06T08:10:45;29.75;;;17.23;;
82703;SDS011;72427;42.000;21.464;2024-03-06T08:13:11;28.50;;;17.90;;
82703;SDS011;72427;42.000;21.464;2024-03-06T08:15:37;28.75;;;17.27;;
82703;SDS011;72427;42.000;21.464;2024-03-06T08:18:08;29.42;;;17.67;;
82703;SDS011;72427;42.000;21.464;2024-03-06T08:20:34;30.75;;;16.67;;
82703;SDS011;72427;42.000;21.464;2024-03-06T08:23:00;29.27;;;17.20;;
82703;SDS011;72427;42.000;21.464;2024-03-06T08:25:26;32.00;;;18.98;;
82703;SDS011;72427;42.000;21.464;2024-03-06T08:27:53;27.90;;;18.88;;
82703;SDS011;72427;42.000;21.464;2024-03-06T08:30:19;31.60;;;18.75;;
82703;SDS011;72427;42.000;21.464;2024-03-06T08:32:45;31.17;;;18.15;;
82703;SDS011;72427;42.000;21.464;2024-03-06T08:35:12;27.75;;;18.35;;
82703;SDS011;72427;42.000;21.464;2024-03-06T08:37:38;28.27;;;17.35;;
82703;SDS011;72427;42.000;21.464;2024-03-06T08:40:05;31.15;;;17.90;;
82703;SDS011;72427;42.000;21.464;2024-03-06T08:42:42;30.85;;;17.98;;
82703;SDS011;72427;42.000;21.464;2024-03-06T08:45:08;30.45;;;18.17;;
82703;SDS011;72427;42.000;21.464;2024-03-06T08:47:35;28.75;;;17.15;;
82703;SDS011;72427;42.000;21.464;2024-03-06T08:50:02;25.50;;;17.33;;
82703;SDS011;72427;42.000;21.464;2024-03-06T08:52:28;25.73;;;16.55;;
82703;SDS011;72427;42.000;21.464;2024-03-06T08:54:56;23.20;;;14.27;;
82703;SDS011;72427;42.000;21.464;2024-03-06T08:57:22;23.77;;;16.10;;
82703;SDS011;72427;42.000;21.464;2024-03-06T08:59:49;24.40;;;16.35;;
82703;SDS011;72427;42.000;21.464;2024-03-06T09:02:17;24.52;;;15.52;;
82703;SDS011;72427;42.000;21.464;2024-03-06T09:04:43;24.77;;;16.55;;
82703;SDS011;72427;42.000;21.464;2024-03-06T09:07:10;24.85;;;15.75;;
82703;SDS011;72427;42.000;21.464;2024-03-06T09:09:36;21.05;;;13.35;;
82703;SDS011;72427;42.000;21.464;2024-03-06T09:12:06;22.88;;;14.70;;
82703;SDS011;72427;42.000;21.464;2024-03-06T09:14:33;20.70;;;14.18;;
82703;SDS011;72427;42.000;21.464;2024-03-06T09:16:59;24.52;;;15.05;;
82703;SDS011;72427;42.000;21.464;2024-03-06T09:19:25;23.17;;;15.57;;
82703;SDS011;72427;42.000;21.464;2024-03-06T09:21:51;23.40;;;14.32;;
82703;SDS011;72427;42.000;21.464;2024-03-06T09:24:19;22.45;;;14.88;;
82703;SDS011;72427;42.000;21.464;2024-03-06T09:26:45;24.75;;;15.82;;
82703;SDS011;72427;42.000;21.464;2024-03-06T09:29:12;28.88;;;17.33;;
82703;SDS011;72427;42.000;21.464;2024-03-06T09:31:38;26.02;;;16.67;;
82703;SDS011;72427;42.000;21.464;2024-03-06T09:34:04;23.67;;;14.85;;
82703;SDS011;72427;42.000;21.464;2024-03-06T09:36:30;27.40;;;18.10;;
82703;SDS011;72427;42.000;21.464;2024-03-06T09:38:58;26.75;;;18.20;;
82703;SDS011;72427;42.000;21.464;2024-03-06T09:41:24;26.55;;;16.20;;
82703;SDS011;72427;42.000;21.464;2024-03-06T09:43:50;24.75;;;15.82;;
82703;SDS011;72427;42.000;21.464;2024-03-06T09:46:17;23.98;;;17.02;;
82703;SDS011;72427;42.000;21.464;2024-03-06T09:48:45;26.17;;;17.58;;
82703;SDS011;72427;42.000;21.464;2024-03-06T09:51:11;28.58;;;19.08;;
82703;SDS011;72427;42.000;21.464;2024-03-06T09:53:39;28.75;;;17.45;;
82703;SDS011;72427;42.000;21.464;2024-03-06T09:56:05;25.98;;;16.80;;
82703;SDS011;72427;42.000;21.464;2024-03-06T09:58:31;25.27;;;16.63;;
82703;SDS011;72427;42.000;21.464;2024-03-06T10:00:58;31.13;;;18.08;;
82703;SDS011;72427;42.000;21.464;2024-03-06T10:03:25;28.38;;;17.85;;
82703;SDS011;72427;42.000;21.464;2024-03-06T10:05:52;23.20;;;15.35;;
82703;SDS011;72427;42.000;21.464;2024-03-06T10:10:49;31.83;;;18.05;;
82703;SDS011;72427;42.000;21.464;2024-03-06T10:13:22;27.27;;;16.73;;
82703;SDS011;72427;42.000;21.464;2024-03-06T10:16:09;27.33;;;18.15;;
82703;SDS011;72427;42.000;21.464;2024-03-06T10:18:36;25.20;;;17.33;;
82703;SDS011;72427;42.000;21.464;2024-03-06T10:21:04;25.63;;;17.67;;
82703;SDS011;72427;42.000;21.464;2024-03-06T10:23:34;24.60;;;16.40;;
82703;SDS011;72427;42.000;21.464;2024-03-06T10:26:00;26.20;;;16.10;;
82703;SDS011;72427;42.000;21.464;2024-03-06T10:28:26;21.88;;;14.60;;
82703;SDS011;72427;42.000;21.464;2024-03-06T10:31:02;21.85;;;12.90;;
82703;SDS011;72427;42.000;21.464;2024-03-06T10:33:28;23.95;;;13.25;;
82703;SDS011;72427;42.000;21.464;2024-03-06T10:35:54;22.00;;;12.88;;
82703;SDS011;72427;42.000;21.464;2024-03-06T10:38:20;21.92;;;14.05;;
82703;SDS011;72427;42.000;21.464;2024-03-06T10:40:47;24.52;;;14.77;;
82703;SDS011;72427;42.000;21.464;2024-03-06T10:43:17;21.77;;;14.63;;
82703;SDS011;72427;42.000;21.464;2024-03-06T10:48:10;22.35;;;15.60;;
82703;SDS011;72427;42.000;21.464;2024-03-06T10:50:39;23.00;;;15.63;;
82703;SDS011;72427;42.000;21.464;2024-03-06T10:53:10;20.00;;;13.90;;
82703;SDS011;72427;42.000;21.464;2024-03-06T10:55:36;23.45;;;15.18;;
82703;SDS011;72427;42.000;21.464;2024-03-06T10:58:06;20.33;;;14.27;;
82703;SDS011;72427;42.000;21.464;2024-03-06T11:00:36;21.83;;;13.68;;
82703;SDS011;72427;42.000;21.464;2024-03-06T11:03:07;36.63;;;16.95;;
82703;SDS011;72427;42.000;21.464;2024-03-06T11:05:37;21.13;;;13.85;;
82703;SDS011;72427;42.000;21.464;2024-03-06T11:08:05;20.10;;;13.80;;
82703;SDS011;72427;42.000;21.464;2024-03-06T11:10:37;19.17;;;12.00;;
82703;SDS011;72427;42.000;21.464;2024-03-06T11:13:03;19.25;;;12.52;;
82703;SDS011;72427;42.000;21.464;2024-03-06T11:15:30;22.02;;;13.18;;
82703;SDS011;72427;42.000;21.464;2024-03-06T11:17:57;21.63;;;13.05;;
82703;SDS011;72427;42.000;21.464;2024-03-06T11:20:23;21.02;;;13.52;;
82703;SDS011;72427;42.000;21.464;2024-03-06T11:28:08;22.83;;;13.00;;
82703;SDS011;72427;42.000;21.464;2024-03-06T11:30:44;16.80;;;12.07;;
82703;SDS011;72427;42.000;21.464;2024-03-06T11:33:12;17.98;;;12.50;;
82703;SDS011;72427;42.000;21.464;2024-03-06T11:35:39;15.73;;;11.50;;
82703;SDS011;72427;42.000;21.464;2024-03-06T11:38:09;16.38;;;11.50;;
82703;SDS011;72427;42.000;21.464;2024-03-06T11:40:44;17.02;;;12.23;;
82703;SDS011;72427;42.000;21.464;2024-03-06T11:43:26;15.70;;;11.43;;
82703;SDS011;72427;42.000;21.464;2024-03-06T11:45:53;17.48;;;11.20;;
82703;SDS011;72427;42.000;21.464;2024-03-06T11:48:19;15.07;;;9.80;;
82703;SDS011;72427;42.000;21.464;2024-03-06T11:50:46;17.85;;;11.05;;
82703;SDS011;72427;42.000;21.464;2024-03-06T11:53:13;16.42;;;10.93;;
82703;SDS011;72427;42.000;21.464;2024-03-06T11:55:39;14.13;;;9.05;;
82703;SDS011;72427;42.000;21.464;2024-03-06T11:58:05;16.13;;;10.32;;
82703;SDS011;72427;42.000;21.464;2024-03-06T12:00:33;13.55;;;8.95;;
82703;SDS011;72427;42.000;21.464;2024-03-06T12:02:59;16.88;;;10.18;;
82703;SDS011;72427;42.000;21.464;2024-03-06T12:05:25;11.90;;;7.97;;
82703;SDS011;72427;42.000;21.464;2024-03-06T12:07:52;16.55;;;10.32;;
82703;SDS011;72427;42.000;21.464;2024-03-06T12:10:19;14.70;;;8.82;;
82703;SDS011;72427;42.000;21.464;2024-03-06T12:12:45;19.38;;;10.18;;
82703;SDS011;72427;42.000;21.464;2024-03-06T12:15:12;15.40;;;9.10;;
82703;SDS011;72427;42.000;21.464;2024-03-06T12:17:45;11.65;;;8.40;;
82703;SDS011;72427;42.000;21.464;2024-03-06T12:20:12;13.90;;;8.38;;
82703;SDS011;72427;42.000;21.464;2024-03-06T12:22:59;12.50;;;8.23;;
82703;SDS011;72427;42.000;21.464;2024-03-06T12:25:26;12.20;;;7.55;;
82703;SDS011;72427;42.000;21.464;2024-03-06T12:28:05;11.40;;;7.20;;
82703;SDS011;72427;42.000;21.464;2024-03-06T12:32:59;7.05;;;5.30;;
82703;SDS011;72427;42.000;21.464;2024-03-06T12:35:29;10.27;;;6.53;;
82703;SDS011;72427;42.000;21.464;2024-03-06T12:37:56;11.90;;;6.70;;
82703;SDS011;72427;42.000;21.464;2024-03-06T12:40:22;10.88;;;6.63;;
82703;SDS011;72427;42.000;21.464;2024-03-06T12:42:49;14.10;;;6.78;;
82703;SDS011;72427;42.000;21.464;2024-03-06T12:45:17;10.65;;;6.70;;
82703;SDS011;72427;42.000;21.464;2024-03-06T12:47:43;10.30;;;6.07;;
82703;SDS011;72427;42.000;21.464;2024-03-06T12:50:10;10.82;;;7.05;;
82703;SDS011;72427;42.000;21.464;2024-03-06T12:52:40;13.32;;;9.05;;
82703;SDS011;72427;42.000;21.464;2024-03-06T12:55:07;10.57;;;6.40;;
82703;SDS011;72427;42.000;21.464;2024-03-06T12:57:33;10.20;;;6.45;;
82703;SDS011;72427;42.000;21.464;2024-03-06T12:59:59;10.43;;;6.32;;
82703;SDS011;72427;42.000;21.464;2024-03-06T13:02:26;9.82;;;6.18;;
82703;SDS011;72427;42.000;21.464;2024-03-06T13:04:52;8.27;;;5.68;;
82703;SDS011;72427;42.000;21.464;2024-03-06T13:07:18;10.65;;;6.78;;
82703;SDS011;72427;42.000;21.464;2024-03-06T13:09:44;12.95;;;5.63;;
82703;SDS011;72427;42.000;21.464;2024-03-06T13:12:11;10.18;;;6.00;;
82703;SDS011;72427;42.000;21.464;2024-03-06T13:14:37;9.55;;;5.90;;
82703;SDS011;72427;42.000;21.464;2024-03-06T13:17:03;11.25;;;5.60;;
82703;SDS011;72427;42.000;21.464;2024-03-06T13:19:31;11.35;;;5.40;;
82703;SDS011;72427;42.000;21.464;2024-03-06T13:21:57;10.40;;;5.65;;
82703;SDS011;72427;42.000;21.464;2024-03-06T13:24:23;7.32;;;5.13;;
82703;SDS011;72427;42.000;21.464;2024-03-06T13:26:49;10.95;;;5.78;;
82703;SDS011;72427;42.000;21.464;2024-03-06T13:29:15;9.25;;;5.30;;
82703;SDS011;72427;42.000;21.464;2024-03-06T13:31:41;8.50;;;5.43;;
82703;SDS011;72427;42.000;21.464;2024-03-06T13:34:07;10.80;;;5.90;;
82703;SDS011;72427;42.000;21.464;2024-03-06T13:36:33;8.63;;;5.95;;
82703;SDS011;72427;42.000;21.464;2024-03-06T13:38:59;9.43;;;5.00;;
82703;SDS011;72427;42.000;21.464;2024-03-06T13:41:25;10.43;;;5.15;;
82703;SDS011;72427;42.000;21.464;2024-03-06T13:43:51;10.23;;;5.80;;
82703;SDS011;72427;42.000;21.464;2024-03-06T13:46:17;10.43;;;5.82;;
82703;SDS011;72427;42.000;21.464;2024-03-06T13:48:43;11.82;;;6.00;;
82703;SDS011;72427;42.000;21.464;2024-03-06T13:51:09;10.70;;;5.47;;
82703;SDS011;72427;42.000;21.464;2024-03-06T13:53:35;11.40;;;5.63;;
82703;SDS011;72427;42.000;21.464;2024-03-06T13:56:01;10.10;;;5.72;;
82703;SDS011;72427;42.000;21.464;2024-03-06T13:58:27;11.63;;;5.60;;
82703;SDS011;72427;42.000;21.464;2024-03-06T14:00:53;8.57;;;5.47;;
82703;SDS011;72427;42.000;21.464;2024-03-06T14:03:19;8.93;;;5.38;;
82703;SDS011;72427;42.000;21.464;2024-03-06T14:05:47;11.48;;;5.88;;
82703;SDS011;72427;42.000;21.464;2024-03-06T14:08:13;9.88;;;5.75;;
82703;SDS011;72427;42.000;21.464;2024-03-06T14:10:41;9.40;;;6.15;;
82703;SDS011;72427;42.000;21.464;2024-03-06T14:13:07;11.90;;;6.07;;
82703;SDS011;72427;42.000;21.464;2024-03-06T14:15:33;11.75;;;6.10;;
82703;SDS011;72427;42.000;21.464;2024-03-06T14:17:59;10.85;;;6.22;;
82703;SDS011;72427;42.000;21.464;2024-03-06T14:20:26;11.52;;;6.68;;
82703;SDS011;72427;42.000;21.464;2024-03-06T14:22:53;11.90;;;5.80;;
82703;SDS011;72427;42.000;21.464;2024-03-06T14:25:19;13.05;;;6.50;;